Hlavní strana
METAR-TAF:

METAR-TAF

Letiště :

Haifa, Izrael

zeměpisná šířka: 32-48N, zeměpisná délka: 035-02E, výška: 8 m

Aktuální stav počasí

Zpráva byla vytvořena před 40 minutami, v 09:50 UTC
Jihovýchodní vítr 8 kt
Teplota 18°C
Vlhkost vzduchu 77%
Tlak 1014 hPa
Viditelnost 10 km a více
Polojasno ve výšce 3900 ft

METAR: LLHA 100950Z 14008KT 9999 SCT039 18/14 Q1014 RMK BKN100

Čas: 12:30 (10:30 UTC)

Předpověď počasí

Zpráva byla vytvořena před 5 hodinami a 28 minutami, v 05:02 UTC
Předpověď platná od 10 v 06 UTC do 11 v 06 UTC
Jihojihovýchodní vítr 8 kt
Viditelnost 10 km a více
Polojasno ve výšce 9000 ft
Dočasný
od 10 v 06 UTC do 10 v 16 UTC
Jihozápadní vítr 10 kt
Viditelnost: 9000 m
Oblačno až skoro zataženo ve výšce 7000 ft
slabý déšť
Změna
od 10 v 16 UTC do 10 v 19 UTC
Východojihovýchodní vítr 10 kt
Viditelnost: 8000 m

TAF: LLHA 100502Z 1006/1106 15008KT 9999 SCT090 TEMPO 1006/1016 22010KT 9000 -RA BKN070 BECMG 1016/1019 12010KT 8000 NSC TX19/1012Z TN13/1104Z

Stav a předpovědi počasí z více než 4 000 letišť (zprávy METAR a TAF).

Červené a žluté tečky na mapě představují dostupné meteorologické stanice.

Když kurzor umístíte na tečku, zobrazí se název stanice.

Pak kliknutím zobrazíte stav a předpověď počasí.

Chcete-li změnit mapu, kliknutím na zelené tlačítko se znaménkem +mapu přiblížíte, kliknutím na zelené tlačítko se znaménkem – mapu oddálíte a kliknutím na zelené šipky přejdete na sousední mapy.


METAR-TAF: